Echo, Alabama
Current Conditions -  °F | °C
As of 9:12 AM on Saturday 20 Dec 2014 (Local Time) from KDHN Reporting Station
Light Rain Light Rain  
Wind Chill: 50°   Ceiling: 600
Heat Index: 50°   Visibility: 10mi
Dew Point: 48°   Wind: 5mph
Humidity: 94%   Direction: 60°ENE
Pressure: 30.21"   Gusts: NA
Location:  31.4499°N, 85.3271°W
Report Text: KDHN 201512Z 06004KT 10SM -RA BKN006 OVC044 10/09 A3021 RMK AO2 P0000
Loading
Personal Weather Stations






























Interactive Weather Map New forecast layout! Learn more

10-Day Weather Forecast

Advertisements
Track Severe Weather on mobile